No data was retrieved for https://query.yahooapis.com/v1/public/yql?q=select+%2A+from+weather.forecast+where+woeid%3D860853&format=xml&u=c



Visit our other weather sites:

Template documentation
and downloads

And another site



Nearby METAR Reports

   
EBAW - Antwerp
Updated: 28-09-2020 22:20
Light Rain, Mist, Mostly Cloudy  
Light Rain, Mist, Mostly Cloudy  
   Wind: WNW 5.7 m/s
Wind: WNW 5.7 m/s
Temperature: 15°C
Dew Point: 14°C
Humidity: 94%
Barometer: 1012 hPa
Clouds: Mostly Cloudy
Visibility: 3 km
Cloud details: Mostly Cloudy 300 ft
EBAW 282020Z 29011KT 3000 -RA BR BKN003 15/14 Q1012 NOSIG
EBLG - Liège
Updated: 28-09-2020 22:20
Light Drizzle, Mostly Cloudy  
Light Drizzle, Mostly Cloudy  
   Wind: South 3.1 m/s
Wind: South 3.1 m/s
Temperature: 11°C
Dew Point: 10°C
Humidity: 94%
Barometer: 1012 hPa
Clouds: Mostly Cloudy
Visibility: 2 km
Cloud details: Partly Cloudy 200 ft,
Mostly Cloudy 400 ft
EBLG 282020Z 18006KT 160V220 2000 -DZ SCT002 BKN004 11/10 Q1012 TEMPO 1200 DZRA BKN003
EBCV - Mons/Bergen
Updated: 26-09-2020 06:25
NOT Current
  
  
   Wind: WNW 9.3 m/s
Wind: WNW 9.3 m/s
Temperature: 10°C
Wind Chill: 6°C
Dew Point: 9°C
Humidity: 94%
Barometer: 1000 hPa
EBCV 260425Z AUTO 29018KT //// /// 10/09 Q1000
EHBK - Maastricht
Updated: 28-09-2020 22:25
Overcast  
Overcast  
   Wind: South 3.6 m/s
Wind: South 3.6 m/s
Temperature: 11°C
Dew Point: 10°C
Humidity: 94%
Barometer: 1011 hPa
Clouds: Overcast
Visibility: More than 10 km
Cloud details: Overcast 800 ft
EHBK 282025Z AUTO 19007KT 160V220 9999 OVC008 11/10 Q1011 NOSIG
ELLX - Luxemburg
Updated: 28-09-2020 22:20
Light Drizzle, Mostly Cloudy  
Light Drizzle, Mostly Cloudy  
   Wind: SSW 3.1 m/s
Wind: SSW 3.1 m/s
Temperature: 9°C
Wind Chill: 7°C
Dew Point: 8°C
Humidity: 94%
Barometer: 1013 hPa
Clouds: Mostly Cloudy
Visibility: 2 km
Cloud details: Partly Cloudy 100 ft,
Mostly Cloudy 200 ft
ELLX 282020Z 20006KT 2000 -DZ SCT001 BKN002 09/08 Q1013 NOSIG
EBOS - Oostende
Updated: 28-09-2020 22:20
Mostly Cloudy  
Mostly Cloudy  
   Wind: NW 4.6 m/s
Wind: NW 4.6 m/s
Temperature: 15°C
Dew Point: 11°C
Humidity: 77%
Barometer: 1014 hPa
Clouds: Mostly Cloudy
Visibility: More than 10 km
Cloud details: Mostly Cloudy 2500 ft
EBOS 282020Z 31009KT 9999 BKN025 15/11 Q1014 NOSIG

Script developed by  Saratoga-weather.org Adapted for the template by  Weerstation Leuven

You find our weather info also at:

Weather Underground

Equipment we use:

Weather-station
Davis Vantage Vue

Weather-program
WeatherCat

Provider
one.com

Davis Vantage Vue

WeatherCat

one.com